sensor_id;sensor_type;location;lat;lon;timestamp;noise_LAeq;noise_LA_min;noise_LA_max;noise_LA01;noise_LA95
36217;Laerm;22259;48.792;8.964;2022-12-11T00:00:04;49.26;40.97;66.34;;
36217;Laerm;22259;48.792;8.964;2022-12-11T00:02:30;42.61;40.60;44.29;;
36217;Laerm;22259;48.792;8.964;2022-12-11T00:04:55;42.92;40.76;46.61;;
36217;Laerm;22259;48.792;8.964;2022-12-11T00:07:21;42.76;40.91;44.57;;
36217;Laerm;22259;48.792;8.964;2022-12-11T00:09:46;42.66;39.78;44.47;;
36217;Laerm;22259;48.792;8.964;2022-12-11T00:12:12;50.55;40.80;64.60;;
36217;Laerm;22259;48.792;8.964;2022-12-11T00:14:37;42.93;41.00;45.41;;
36217;Laerm;22259;48.792;8.964;2022-12-11T00:17:02;42.90;40.91;45.34;;
36217;Laerm;22259;48.792;8.964;2022-12-11T00:19:28;43.02;40.71;44.89;;
36217;Laerm;22259;48.792;8.964;2022-12-11T00:21:53;43.42;40.73;54.24;;
36217;Laerm;22259;48.792;8.964;2022-12-11T00:24:18;51.51;40.53;69.63;;
36217;Laerm;22259;48.792;8.964;2022-12-11T00:26:44;42.71;40.48;46.52;;
36217;Laerm;22259;48.792;8.964;2022-12-11T00:29:09;49.85;40.53;66.36;;
36217;Laerm;22259;48.792;8.964;2022-12-11T00:31:38;41.60;38.21;44.41;;
36217;Laerm;22259;48.792;8.964;2022-12-11T00:34:04;41.79;38.67;47.42;;
36217;Laerm;22259;48.792;8.964;2022-12-11T00:36:29;41.35;38.63;43.86;;
36217;Laerm;22259;48.792;8.964;2022-12-11T00:38:54;41.68;38.71;44.82;;
36217;Laerm;22259;48.792;8.964;2022-12-11T00:41:20;41.11;38.56;44.07;;
36217;Laerm;22259;48.792;8.964;2022-12-11T00:43:46;40.66;37.92;42.72;;
36217;Laerm;22259;48.792;8.964;2022-12-11T00:46:11;47.95;38.37;65.03;;
36217;Laerm;22259;48.792;8.964;2022-12-11T00:48:37;44.67;38.33;60.79;;
36217;Laerm;22259;48.792;8.964;2022-12-11T00:51:02;43.22;41.36;44.74;;
36217;Laerm;22259;48.792;8.964;2022-12-11T00:53:27;43.18;40.87;45.05;;
36217;Laerm;22259;48.792;8.964;2022-12-11T00:55:53;43.05;41.32;44.45;;
36217;Laerm;22259;48.792;8.964;2022-12-11T00:58:18;43.06;40.97;44.89;;
36217;Laerm;22259;48.792;8.964;2022-12-11T01:00:44;43.05;41.16;44.46;;
36217;Laerm;22259;48.792;8.964;2022-12-11T01:03:10;43.20;41.32;45.21;;
36217;Laerm;22259;48.792;8.964;2022-12-11T01:05:37;43.14;41.30;44.50;;
36217;Laerm;22259;48.792;8.964;2022-12-11T01:08:02;43.39;41.50;47.44;;
36217;Laerm;22259;48.792;8.964;2022-12-11T01:10:28;43.32;40.91;44.82;;
36217;Laerm;22259;48.792;8.964;2022-12-11T01:12:54;43.45;41.18;45.15;;
36217;Laerm;22259;48.792;8.964;2022-12-11T01:15:21;50.56;41.84;68.27;;
36217;Laerm;22259;48.792;8.964;2022-12-11T01:17:47;43.07;39.73;46.70;;
36217;Laerm;22259;48.792;8.964;2022-12-11T01:20:13;41.65;39.15;45.07;;
36217;Laerm;22259;48.792;8.964;2022-12-11T01:22:38;41.57;38.78;44.89;;
36217;Laerm;22259;48.792;8.964;2022-12-11T01:25:04;40.87;37.79;44.20;;
36217;Laerm;22259;48.792;8.964;2022-12-11T01:27:29;41.08;38.49;45.43;;
36217;Laerm;22259;48.792;8.964;2022-12-11T01:29:55;41.66;38.78;44.86;;
36217;Laerm;22259;48.792;8.964;2022-12-11T01:32:21;41.06;38.49;43.32;;
36217;Laerm;22259;48.792;8.964;2022-12-11T01:34:46;40.94;38.21;43.81;;
36217;Laerm;22259;48.792;8.964;2022-12-11T01:37:12;43.25;40.67;44.50;;
36217;Laerm;22259;48.792;8.964;2022-12-11T01:39:37;43.22;41.36;44.67;;
36217;Laerm;22259;48.792;8.964;2022-12-11T01:42:02;43.33;41.40;44.82;;
36217;Laerm;22259;48.792;8.964;2022-12-11T01:48:27;46.84;41.06;64.57;;
36217;Laerm;22259;48.792;8.964;2022-12-11T01:50:55;43.28;41.14;44.83;;
36217;Laerm;22259;48.792;8.964;2022-12-11T01:53:44;43.31;41.37;44.89;;
36217;Laerm;22259;48.792;8.964;2022-12-11T01:56:11;43.25;41.22;44.69;;
36217;Laerm;22259;48.792;8.964;2022-12-11T01:58:41;43.26;41.28;45.41;;
36217;Laerm;22259;48.792;8.964;2022-12-11T02:01:09;43.33;41.32;44.90;;
36217;Laerm;22259;48.792;8.964;2022-12-11T02:03:36;43.30;41.57;44.74;;
36217;Laerm;22259;48.792;8.964;2022-12-11T02:06:01;42.45;37.02;44.59;;
36217;Laerm;22259;48.792;8.964;2022-12-11T02:08:27;40.23;37.22;44.87;;
36217;Laerm;22259;48.792;8.964;2022-12-11T02:10:56;40.35;36.63;43.56;;
36217;Laerm;22259;48.792;8.964;2022-12-11T02:13:32;40.14;36.63;43.26;;
36217;Laerm;22259;48.792;8.964;2022-12-11T02:16:21;50.32;37.17;68.45;;
36217;Laerm;22259;48.792;8.964;2022-12-11T02:24:27;41.26;37.70;45.41;;
36217;Laerm;22259;48.792;8.964;2022-12-11T02:27:13;43.36;41.26;44.85;;
36217;Laerm;22259;48.792;8.964;2022-12-11T02:29:51;43.31;41.38;44.66;;
36217;Laerm;22259;48.792;8.964;2022-12-11T02:36:38;43.34;41.22;49.73;;
36217;Laerm;22259;48.792;8.964;2022-12-11T02:39:05;43.36;41.46;44.79;;
36217;Laerm;22259;48.792;8.964;2022-12-11T02:41:33;43.49;41.64;59.98;;
36217;Laerm;22259;48.792;8.964;2022-12-11T02:43:58;43.50;41.55;45.09;;
36217;Laerm;22259;48.792;8.964;2022-12-11T02:46:26;44.84;41.73;60.62;;
36217;Laerm;22259;48.792;8.964;2022-12-11T02:48:52;48.70;41.79;65.02;;
36217;Laerm;22259;48.792;8.964;2022-12-11T02:51:20;43.55;41.75;47.04;;
36217;Laerm;22259;48.792;8.964;2022-12-11T02:53:46;43.56;41.65;45.10;;
36217;Laerm;22259;48.792;8.964;2022-12-11T02:56:16;43.57;41.59;44.92;;
36217;Laerm;22259;48.792;8.964;2022-12-11T02:58:51;43.65;41.84;45.02;;
36217;Laerm;22259;48.792;8.964;2022-12-11T03:01:18;43.69;41.66;45.10;;
36217;Laerm;22259;48.792;8.964;2022-12-11T03:03:43;43.78;41.91;45.30;;
36217;Laerm;22259;48.792;8.964;2022-12-11T03:06:09;48.77;37.07;66.30;;
36217;Laerm;22259;48.792;8.964;2022-12-11T03:08:38;39.67;36.85;42.65;;
36217;Laerm;22259;48.792;8.964;2022-12-11T03:11:03;39.69;36.85;42.85;;
36217;Laerm;22259;48.792;8.964;2022-12-11T03:13:28;40.12;37.17;43.23;;
36217;Laerm;22259;48.792;8.964;2022-12-11T03:20:02;54.99;37.47;74.17;;
36217;Laerm;22259;48.792;8.964;2022-12-11T03:22:32;41.82;38.60;44.11;;
36217;Laerm;22259;48.792;8.964;2022-12-11T03:25:00;43.98;41.63;49.48;;
36217;Laerm;22259;48.792;8.964;2022-12-11T03:27:29;43.85;42.14;45.51;;
36217;Laerm;22259;48.792;8.964;2022-12-11T03:29:56;43.95;42.21;45.38;;
36217;Laerm;22259;48.792;8.964;2022-12-11T03:32:25;43.88;42.04;45.54;;
36217;Laerm;22259;48.792;8.964;2022-12-11T03:34:57;43.90;42.16;45.26;;
36217;Laerm;22259;48.792;8.964;2022-12-11T03:37:24;43.94;42.30;45.39;;
36217;Laerm;22259;48.792;8.964;2022-12-11T03:39:52;44.00;42.08;45.59;;
36217;Laerm;22259;48.792;8.964;2022-12-11T03:42:18;41.18;37.70;55.65;;
36217;Laerm;22259;48.792;8.964;2022-12-11T03:44:46;40.37;37.17;44.53;;
36217;Laerm;22259;48.792;8.964;2022-12-11T03:47:13;49.32;38.17;67.59;;
36217;Laerm;22259;48.792;8.964;2022-12-11T03:49:39;40.91;38.29;45.96;;
36217;Laerm;22259;48.792;8.964;2022-12-11T03:52:06;41.26;38.60;44.04;;
36217;Laerm;22259;48.792;8.964;2022-12-11T03:54:33;41.45;38.52;45.06;;
36217;Laerm;22259;48.792;8.964;2022-12-11T03:56:59;41.74;39.08;43.86;;
36217;Laerm;22259;48.792;8.964;2022-12-11T03:59:25;41.82;39.18;43.88;;
36217;Laerm;22259;48.792;8.964;2022-12-11T04:01:51;42.21;39.40;52.61;;
36217;Laerm;22259;48.792;8.964;2022-12-11T04:04:16;41.83;38.81;59.02;;
36217;Laerm;22259;48.792;8.964;2022-12-11T04:06:42;41.71;39.31;44.49;;
36217;Laerm;22259;48.792;8.964;2022-12-11T04:09:07;42.12;39.73;47.41;;
36217;Laerm;22259;48.792;8.964;2022-12-11T04:11:32;50.07;39.78;74.68;;
36217;Laerm;22259;48.792;8.964;2022-12-11T04:14:02;42.08;39.40;44.71;;
36217;Laerm;22259;48.792;8.964;2022-12-11T04:16:47;47.58;39.28;64.17;;
36217;Laerm;22259;48.792;8.964;2022-12-11T04:19:12;43.12;39.31;52.88;;
36217;Laerm;22259;48.792;8.964;2022-12-11T04:21:56;41.68;39.05;44.04;;
36217;Laerm;22259;48.792;8.964;2022-12-11T04:26:39;42.07;39.15;44.28;;
36217;Laerm;22259;48.792;8.964;2022-12-11T04:29:04;42.05;39.73;43.76;;
36217;Laerm;22259;48.792;8.964;2022-12-11T04:31:29;42.29;39.92;45.13;;
36217;Laerm;22259;48.792;8.964;2022-12-11T04:33:55;43.58;39.25;57.13;;
36217;Laerm;22259;48.792;8.964;2022-12-11T04:36:20;46.96;40.28;62.27;;
36217;Laerm;22259;48.792;8.964;2022-12-11T04:38:46;42.10;39.61;44.33;;
36217;Laerm;22259;48.792;8.964;2022-12-11T04:41:12;42.11;39.40;44.46;;
36217;Laerm;22259;48.792;8.964;2022-12-11T04:43:37;41.96;39.25;45.84;;
36217;Laerm;22259;48.792;8.964;2022-12-11T04:46:04;48.30;39.12;65.19;;
36217;Laerm;22259;48.792;8.964;2022-12-11T04:48:30;42.46;39.31;47.67;;
36217;Laerm;22259;48.792;8.964;2022-12-11T04:50:55;42.61;38.88;54.41;;
36217;Laerm;22259;48.792;8.964;2022-12-11T04:53:20;42.93;39.64;57.84;;
36217;Laerm;22259;48.792;8.964;2022-12-11T04:55:46;41.82;39.28;43.55;;
36217;Laerm;22259;48.792;8.964;2022-12-11T04:58:11;41.91;39.52;49.67;;
36217;Laerm;22259;48.792;8.964;2022-12-11T05:00:38;42.07;39.52;44.29;;
36217;Laerm;22259;48.792;8.964;2022-12-11T05:03:03;41.84;39.37;46.90;;
36217;Laerm;22259;48.792;8.964;2022-12-11T05:05:29;41.81;39.08;43.83;;
36217;Laerm;22259;48.792;8.964;2022-12-11T05:07:55;50.01;39.52;69.06;;
36217;Laerm;22259;48.792;8.964;2022-12-11T05:10:20;42.03;38.98;48.93;;
36217;Laerm;22259;48.792;8.964;2022-12-11T05:12:45;42.49;40.16;45.07;;
36217;Laerm;22259;48.792;8.964;2022-12-11T05:15:11;46.25;39.64;62.81;;
36217;Laerm;22259;48.792;8.964;2022-12-11T05:17:36;42.14;38.78;46.21;;
36217;Laerm;22259;48.792;8.964;2022-12-11T05:20:02;42.10;39.43;59.49;;
36217;Laerm;22259;48.792;8.964;2022-12-11T05:22:28;41.94;38.13;52.52;;
36217;Laerm;22259;48.792;8.964;2022-12-11T05:24:54;40.91;38.33;43.24;;
36217;Laerm;22259;48.792;8.964;2022-12-11T05:27:19;40.19;37.07;43.62;;
36217;Laerm;22259;48.792;8.964;2022-12-11T05:29:45;40.14;37.27;43.31;;
36217;Laerm;22259;48.792;8.964;2022-12-11T05:32:10;40.57;37.70;43.43;;
36217;Laerm;22259;48.792;8.964;2022-12-11T05:34:35;41.92;38.25;51.49;;
36217;Laerm;22259;48.792;8.964;2022-12-11T05:37:01;44.94;38.33;57.73;;
36217;Laerm;22259;48.792;8.964;2022-12-11T05:39:26;40.77;37.70;44.92;;
36217;Laerm;22259;48.792;8.964;2022-12-11T05:41:51;41.68;38.13;52.22;;
36217;Laerm;22259;48.792;8.964;2022-12-11T05:44:17;42.76;39.70;48.08;;
36217;Laerm;22259;48.792;8.964;2022-12-11T05:46:42;46.45;39.95;62.53;;
36217;Laerm;22259;48.792;8.964;2022-12-11T05:49:08;42.17;39.49;43.97;;
36217;Laerm;22259;48.792;8.964;2022-12-11T05:51:34;42.20;40.13;43.84;;
36217;Laerm;22259;48.792;8.964;2022-12-11T05:54:00;42.30;39.81;46.48;;
36217;Laerm;22259;48.792;8.964;2022-12-11T05:56:26;42.75;40.28;46.14;;
36217;Laerm;22259;48.792;8.964;2022-12-11T05:58:52;42.12;40.05;44.31;;
36217;Laerm;22259;48.792;8.964;2022-12-11T06:01:19;42.97;39.73;51.88;;
36217;Laerm;22259;48.792;8.964;2022-12-11T06:03:45;42.71;40.38;45.61;;
36217;Laerm;22259;48.792;8.964;2022-12-11T06:06:10;42.14;39.95;46.05;;
36217;Laerm;22259;48.792;8.964;2022-12-11T06:08:36;41.84;39.12;43.79;;
36217;Laerm;22259;48.792;8.964;2022-12-11T06:11:01;42.06;39.25;44.21;;
36217;Laerm;22259;48.792;8.964;2022-12-11T06:13:27;42.06;39.58;44.63;;
36217;Laerm;22259;48.792;8.964;2022-12-11T06:15:52;48.79;39.89;66.10;;
36217;Laerm;22259;48.792;8.964;2022-12-11T06:18:18;40.57;36.80;49.94;;
36217;Laerm;22259;48.792;8.964;2022-12-11T06:20:43;39.96;37.02;50.66;;
36217;Laerm;22259;48.792;8.964;2022-12-11T06:23:08;41.50;38.21;48.28;;
36217;Laerm;22259;48.792;8.964;2022-12-11T06:25:34;40.91;38.33;48.61;;
36217;Laerm;22259;48.792;8.964;2022-12-11T06:27:59;41.15;38.33;43.73;;
36217;Laerm;22259;48.792;8.964;2022-12-11T06:30:25;41.86;38.63;52.09;;
36217;Laerm;22259;48.792;8.964;2022-12-11T06:32:50;42.56;38.60;57.77;;
36217;Laerm;22259;48.792;8.964;2022-12-11T06:35:15;41.74;38.78;52.29;;
36217;Laerm;22259;48.792;8.964;2022-12-11T06:37:41;42.56;40.21;44.40;;
36217;Laerm;22259;48.792;8.964;2022-12-11T06:40:07;43.37;40.36;66.31;;
36217;Laerm;22259;48.792;8.964;2022-12-11T06:42:33;43.34;40.64;60.48;;
36217;Laerm;22259;48.792;8.964;2022-12-11T06:44:58;47.71;40.97;61.40;;
36217;Laerm;22259;48.792;8.964;2022-12-11T06:47:28;46.86;41.20;62.75;;
36217;Laerm;22259;48.792;8.964;2022-12-11T06:49:53;43.46;40.95;56.56;;
36217;Laerm;22259;48.792;8.964;2022-12-11T06:52:20;43.79;41.00;52.14;;
36217;Laerm;22259;48.792;8.964;2022-12-11T06:54:46;43.55;40.95;53.10;;
36217;Laerm;22259;48.792;8.964;2022-12-11T06:57:11;44.37;40.93;55.04;;
36217;Laerm;22259;48.792;8.964;2022-12-11T06:59:36;43.44;40.97;53.87;;
36217;Laerm;22259;48.792;8.964;2022-12-11T07:02:03;44.56;41.32;54.63;;
36217;Laerm;22259;48.792;8.964;2022-12-11T07:04:28;43.28;40.85;60.75;;
36217;Laerm;22259;48.792;8.964;2022-12-11T07:06:55;43.71;40.31;66.67;;
36217;Laerm;22259;48.792;8.964;2022-12-11T07:09:20;43.27;41.06;52.29;;
36217;Laerm;22259;48.792;8.964;2022-12-11T07:11:48;44.45;41.32;60.71;;
36217;Laerm;22259;48.792;8.964;2022-12-11T07:14:13;43.77;41.30;58.23;;
36217;Laerm;22259;48.792;8.964;2022-12-11T07:16:39;51.36;39.87;74.17;;
36217;Laerm;22259;48.792;8.964;2022-12-11T07:19:04;44.52;39.40;61.27;;
36217;Laerm;22259;48.792;8.964;2022-12-11T07:21:30;41.97;39.31;52.93;;
36217;Laerm;22259;48.792;8.964;2022-12-11T07:23:55;43.41;39.02;58.66;;
36217;Laerm;22259;48.792;8.964;2022-12-11T07:26:20;42.21;39.37;45.31;;
36217;Laerm;22259;48.792;8.964;2022-12-11T07:28:46;42.53;39.58;44.85;;
36217;Laerm;22259;48.792;8.964;2022-12-11T07:31:13;43.47;41.00;46.59;;
36217;Laerm;22259;48.792;8.964;2022-12-11T07:33:39;43.11;40.55;49.65;;
36217;Laerm;22259;48.792;8.964;2022-12-11T07:36:06;47.16;41.99;63.76;;
36217;Laerm;22259;48.792;8.964;2022-12-11T07:38:32;44.34;41.44;59.38;;
36217;Laerm;22259;48.792;8.964;2022-12-11T07:41:04;43.62;41.04;50.81;;
36217;Laerm;22259;48.792;8.964;2022-12-11T07:43:30;43.87;41.86;51.34;;
36217;Laerm;22259;48.792;8.964;2022-12-11T07:45:59;44.05;41.57;57.57;;
36217;Laerm;22259;48.792;8.964;2022-12-11T07:48:25;48.83;42.33;65.47;;
36217;Laerm;22259;48.792;8.964;2022-12-11T07:50:50;44.38;42.13;56.67;;
36217;Laerm;22259;48.792;8.964;2022-12-11T07:53:16;44.34;41.82;52.28;;
36217;Laerm;22259;48.792;8.964;2022-12-11T07:55:41;44.01;41.57;48.56;;
36217;Laerm;22259;48.792;8.964;2022-12-11T07:58:06;43.87;42.01;53.37;;
36217;Laerm;22259;48.792;8.964;2022-12-11T08:00:32;52.22;41.89;70.02;;
36217;Laerm;22259;48.792;8.964;2022-12-11T08:02:57;43.51;41.57;46.80;;
36217;Laerm;22259;48.792;8.964;2022-12-11T08:05:23;43.62;41.66;45.91;;
36217;Laerm;22259;48.792;8.964;2022-12-11T08:07:48;44.10;41.44;52.84;;
36217;Laerm;22259;48.792;8.964;2022-12-11T08:10:14;45.09;41.81;58.78;;
36217;Laerm;22259;48.792;8.964;2022-12-11T08:12:39;43.49;40.95;50.24;;
36217;Laerm;22259;48.792;8.964;2022-12-11T08:15:05;49.77;41.68;66.28;;
36217;Laerm;22259;48.792;8.964;2022-12-11T08:17:30;49.17;41.24;67.70;;
36217;Laerm;22259;48.792;8.964;2022-12-11T08:19:56;47.26;40.80;70.35;;
36217;Laerm;22259;48.792;8.964;2022-12-11T08:22:21;42.95;40.65;52.18;;
36217;Laerm;22259;48.792;8.964;2022-12-11T08:24:46;43.23;40.28;47.53;;
36217;Laerm;22259;48.792;8.964;2022-12-11T08:27:12;43.10;40.31;49.71;;
36217;Laerm;22259;48.792;8.964;2022-12-11T08:29:37;42.98;40.13;45.48;;
36217;Laerm;22259;48.792;8.964;2022-12-11T08:32:03;42.95;40.00;50.40;;
36217;Laerm;22259;48.792;8.964;2022-12-11T08:34:28;42.90;40.05;45.40;;
36217;Laerm;22259;48.792;8.964;2022-12-11T08:36:53;43.61;40.89;53.19;;
36217;Laerm;22259;48.792;8.964;2022-12-11T08:39:19;45.07;41.75;61.77;;
36217;Laerm;22259;48.792;8.964;2022-12-11T08:41:44;44.68;42.04;57.23;;
36217;Laerm;22259;48.792;8.964;2022-12-11T08:44:13;44.37;41.93;56.91;;
36217;Laerm;22259;48.792;8.964;2022-12-11T08:46:38;53.15;41.73;69.58;;
36217;Laerm;22259;48.792;8.964;2022-12-11T08:49:04;44.13;41.20;50.25;;
36217;Laerm;22259;48.792;8.964;2022-12-11T08:51:29;43.80;41.64;50.70;;
36217;Laerm;22259;48.792;8.964;2022-12-11T08:53:56;44.09;41.96;59.85;;
36217;Laerm;22259;48.792;8.964;2022-12-11T08:56:22;44.94;42.40;56.25;;
36217;Laerm;22259;48.792;8.964;2022-12-11T08:58:47;44.67;42.56;60.57;;
36217;Laerm;22259;48.792;8.964;2022-12-11T09:01:17;44.38;42.46;55.27;;
36217;Laerm;22259;48.792;8.964;2022-12-11T09:03:43;44.22;41.80;57.46;;
36217;Laerm;22259;48.792;8.964;2022-12-11T09:06:09;46.44;42.55;55.27;;
36217;Laerm;22259;48.792;8.964;2022-12-11T09:08:35;44.30;42.55;50.27;;
36217;Laerm;22259;48.792;8.964;2022-12-11T09:11:02;43.79;42.11;45.23;;
36217;Laerm;22259;48.792;8.964;2022-12-11T09:13:27;43.53;40.73;45.94;;
36217;Laerm;22259;48.792;8.964;2022-12-11T09:15:53;43.20;40.41;46.20;;
36217;Laerm;22259;48.792;8.964;2022-12-11T09:18:18;52.78;40.33;71.26;;
36217;Laerm;22259;48.792;8.964;2022-12-11T09:20:43;43.39;40.55;47.12;;
36217;Laerm;22259;48.792;8.964;2022-12-11T09:23:09;43.04;39.89;54.73;;
36217;Laerm;22259;48.792;8.964;2022-12-11T09:25:38;43.05;39.70;57.40;;
36217;Laerm;22259;48.792;8.964;2022-12-11T09:28:03;45.18;39.97;57.92;;
36217;Laerm;22259;48.792;8.964;2022-12-11T09:30:29;42.87;39.84;47.11;;
36217;Laerm;22259;48.792;8.964;2022-12-11T09:32:54;43.16;40.55;44.88;;
36217;Laerm;22259;48.792;8.964;2022-12-11T09:35:20;43.65;41.68;48.95;;
36217;Laerm;22259;48.792;8.964;2022-12-11T09:37:45;43.72;41.66;49.24;;
36217;Laerm;22259;48.792;8.964;2022-12-11T09:40:11;44.89;41.57;53.64;;
36217;Laerm;22259;48.792;8.964;2022-12-11T09:42:52;44.02;41.64;51.80;;
36217;Laerm;22259;48.792;8.964;2022-12-11T09:45:18;43.58;41.34;53.21;;
36217;Laerm;22259;48.792;8.964;2022-12-11T09:47:48;53.04;41.28;70.08;;
36217;Laerm;22259;48.792;8.964;2022-12-11T09:50:37;43.33;41.51;51.67;;
36217;Laerm;22259;48.792;8.964;2022-12-11T09:53:09;44.11;41.36;60.21;;
36217;Laerm;22259;48.792;8.964;2022-12-11T09:58:32;45.29;42.03;71.27;;
36217;Laerm;22259;48.792;8.964;2022-12-11T10:01:06;43.49;41.53;57.73;;
36217;Laerm;22259;48.792;8.964;2022-12-11T10:03:37;43.46;40.89;55.09;;
36217;Laerm;22259;48.792;8.964;2022-12-11T10:06:11;45.64;41.56;59.50;;
36217;Laerm;22259;48.792;8.964;2022-12-11T10:08:47;42.95;39.02;51.68;;
36217;Laerm;22259;48.792;8.964;2022-12-11T10:11:30;42.96;39.87;49.50;;
36217;Laerm;22259;48.792;8.964;2022-12-11T10:19:25;49.42;39.46;66.46;;
36217;Laerm;22259;48.792;8.964;2022-12-11T10:21:52;43.78;39.12;68.51;;
36217;Laerm;22259;48.792;8.964;2022-12-11T10:24:31;41.88;39.18;51.41;;
36217;Laerm;22259;48.792;8.964;2022-12-11T10:26:58;42.93;38.81;58.19;;
36217;Laerm;22259;48.792;8.964;2022-12-11T10:29:34;43.20;41.00;47.09;;
36217;Laerm;22259;48.792;8.964;2022-12-11T10:32:00;43.21;40.93;52.73;;
36217;Laerm;22259;48.792;8.964;2022-12-11T10:34:32;43.07;40.67;52.73;;
36217;Laerm;22259;48.792;8.964;2022-12-11T10:36:58;43.84;41.06;58.17;;
36217;Laerm;22259;48.792;8.964;2022-12-11T10:39:24;44.90;41.28;69.31;;
36217;Laerm;22259;48.792;8.964;2022-12-11T10:41:50;44.62;40.85;58.26;;
36217;Laerm;22259;48.792;8.964;2022-12-11T10:44:17;42.96;40.85;47.52;;
36217;Laerm;22259;48.792;8.964;2022-12-11T10:46:42;49.40;40.89;64.98;;
36217;Laerm;22259;48.792;8.964;2022-12-11T10:49:19;49.92;41.12;69.12;;
36217;Laerm;22259;48.792;8.964;2022-12-11T10:51:45;43.05;41.10;52.01;;
36217;Laerm;22259;48.792;8.964;2022-12-11T10:57:09;46.25;41.38;69.75;;
36217;Laerm;22259;48.792;8.964;2022-12-11T10:59:37;42.90;39.08;55.69;;
36217;Laerm;22259;48.792;8.964;2022-12-11T11:02:04;43.75;39.55;65.03;;
36217;Laerm;22259;48.792;8.964;2022-12-11T11:04:31;41.71;38.74;58.61;;
36217;Laerm;22259;48.792;8.964;2022-12-11T11:07:01;41.95;38.74;55.35;;
36217;Laerm;22259;48.792;8.964;2022-12-11T11:09:36;43.40;38.95;57.62;;
36217;Laerm;22259;48.792;8.964;2022-12-11T11:12:01;44.30;39.21;55.88;;
36217;Laerm;22259;48.792;8.964;2022-12-11T11:14:27;41.09;38.98;45.11;;
36217;Laerm;22259;48.792;8.964;2022-12-11T11:16:55;51.87;38.95;67.11;;
36217;Laerm;22259;48.792;8.964;2022-12-11T11:19:40;43.63;39.49;58.71;;
36217;Laerm;22259;48.792;8.964;2022-12-11T11:22:06;49.11;41.04;66.77;;
36217;Laerm;22259;48.792;8.964;2022-12-11T11:24:54;43.15;41.06;49.94;;
36217;Laerm;22259;48.792;8.964;2022-12-11T11:27:54;44.06;40.81;61.87;;
36217;Laerm;22259;48.792;8.964;2022-12-11T11:30:22;43.22;41.14;47.39;;
36217;Laerm;22259;48.792;8.964;2022-12-11T11:32:49;43.19;41.22;53.33;;
36217;Laerm;22259;48.792;8.964;2022-12-11T11:35:16;45.17;41.30;55.37;;
36217;Laerm;22259;48.792;8.964;2022-12-11T11:39:35;43.70;40.89;57.61;;
36217;Laerm;22259;48.792;8.964;2022-12-11T11:42:14;43.46;41.18;57.57;;
36217;Laerm;22259;48.792;8.964;2022-12-11T11:44:44;52.97;41.57;69.90;;
36217;Laerm;22259;48.792;8.964;2022-12-11T11:47:25;49.20;41.14;64.73;;
36217;Laerm;22259;48.792;8.964;2022-12-11T11:56:26;42.44;37.75;54.49;;
36217;Laerm;22259;48.792;8.964;2022-12-11T11:58:59;41.99;38.25;51.02;;
36217;Laerm;22259;48.792;8.964;2022-12-11T12:01:26;43.00;38.13;57.62;;
36217;Laerm;22259;48.792;8.964;2022-12-11T12:03:59;43.82;39.12;66.80;;
36217;Laerm;22259;48.792;8.964;2022-12-11T12:06:27;42.02;39.12;49.85;;
36217;Laerm;22259;48.792;8.964;2022-12-11T12:09:09;42.38;39.12;62.22;;
36217;Laerm;22259;48.792;8.964;2022-12-11T12:11:45;41.94;38.95;57.47;;
36217;Laerm;22259;48.792;8.964;2022-12-11T12:17:23;51.59;41.20;68.39;;
36217;Laerm;22259;48.792;8.964;2022-12-11T12:20:36;43.12;41.22;49.19;;
36217;Laerm;22259;48.792;8.964;2022-12-11T12:35:34;43.16;41.38;53.87;;
36217;Laerm;22259;48.792;8.964;2022-12-11T12:38:04;48.75;40.64;71.30;;
36217;Laerm;22259;48.792;8.964;2022-12-11T12:40:31;43.63;41.59;52.77;;
36217;Laerm;22259;48.792;8.964;2022-12-11T12:48:58;51.20;38.81;73.38;;
36217;Laerm;22259;48.792;8.964;2022-12-11T12:51:25;42.02;38.81;62.69;;
36217;Laerm;22259;48.792;8.964;2022-12-11T12:53:55;42.32;38.71;54.15;;
36217;Laerm;22259;48.792;8.964;2022-12-11T12:56:21;42.88;38.92;55.01;;
36217;Laerm;22259;48.792;8.964;2022-12-11T12:58:47;41.30;38.98;46.17;;
36217;Laerm;22259;48.792;8.964;2022-12-11T13:01:18;43.63;38.88;60.11;;
36217;Laerm;22259;48.792;8.964;2022-12-11T13:03:55;44.03;40.11;60.29;;
36217;Laerm;22259;48.792;8.964;2022-12-11T13:06:35;42.21;39.58;52.00;;
36217;Laerm;22259;48.792;8.964;2022-12-11T13:09:15;42.83;39.84;60.26;;
36217;Laerm;22259;48.792;8.964;2022-12-11T13:11:41;43.41;41.08;56.48;;
36217;Laerm;22259;48.792;8.964;2022-12-11T13:17:07;49.45;41.36;65.63;;
36217;Laerm;22259;48.792;8.964;2022-12-11T13:19:33;52.01;41.50;69.88;;
36217;Laerm;22259;48.792;8.964;2022-12-11T13:28:05;43.10;38.49;52.46;;
36217;Laerm;22259;48.792;8.964;2022-12-11T13:30:31;42.77;39.11;52.99;;
36217;Laerm;22259;48.792;8.964;2022-12-11T13:33:04;42.64;39.05;49.36;;
36217;Laerm;22259;48.792;8.964;2022-12-11T13:35:31;42.29;39.28;47.45;;
36217;Laerm;22259;48.792;8.964;2022-12-11T13:38:00;41.81;39.18;47.99;;
36217;Laerm;22259;48.792;8.964;2022-12-11T13:40:27;43.05;39.64;50.51;;
36217;Laerm;22259;48.792;8.964;2022-12-11T13:43:01;42.07;39.73;45.95;;
36217;Laerm;22259;48.792;8.964;2022-12-11T13:48:27;48.26;39.94;65.40;;
36217;Laerm;22259;48.792;8.964;2022-12-11T13:50:55;43.26;40.23;49.69;;
36217;Laerm;22259;48.792;8.964;2022-12-11T13:53:21;43.53;40.23;49.42;;
36217;Laerm;22259;48.792;8.964;2022-12-11T13:55:54;42.42;39.92;47.04;;
36217;Laerm;22259;48.792;8.964;2022-12-11T13:58:21;51.58;40.28;65.96;;
36217;Laerm;22259;48.792;8.964;2022-12-11T14:01:01;42.19;39.61;51.73;;
36217;Laerm;22259;48.792;8.964;2022-12-11T14:03:29;41.89;39.64;48.95;;
36217;Laerm;22259;48.792;8.964;2022-12-11T14:05:54;42.10;40.05;47.21;;
36217;Laerm;22259;48.792;8.964;2022-12-11T14:08:21;42.23;40.08;50.99;;
36217;Laerm;22259;48.792;8.964;2022-12-11T14:10:53;45.77;39.92;59.91;;
36217;Laerm;22259;48.792;8.964;2022-12-11T14:13:22;44.22;40.76;64.81;;
36217;Laerm;22259;48.792;8.964;2022-12-11T14:15:49;51.20;40.50;71.08;;
36217;Laerm;22259;48.792;8.964;2022-12-11T14:18:21;46.45;40.08;65.85;;
36217;Laerm;22259;48.792;8.964;2022-12-11T14:20:57;43.21;40.45;51.67;;
36217;Laerm;22259;48.792;8.964;2022-12-11T14:23:24;43.89;40.36;52.65;;
36217;Laerm;22259;48.792;8.964;2022-12-11T14:25:51;43.21;40.36;48.60;;
36217;Laerm;22259;48.792;8.964;2022-12-11T14:28:16;42.96;40.60;46.62;;
36217;Laerm;22259;48.792;8.964;2022-12-11T14:30:45;43.82;40.87;55.94;;
36217;Laerm;22259;48.792;8.964;2022-12-11T14:33:11;42.79;40.53;50.63;;
36217;Laerm;22259;48.792;8.964;2022-12-11T14:35:37;42.57;39.61;49.09;;
36217;Laerm;22259;48.792;8.964;2022-12-11T14:38:09;42.97;39.81;66.25;;
36217;Laerm;22259;48.792;8.964;2022-12-11T14:40:38;42.68;39.64;59.59;;
36217;Laerm;22259;48.792;8.964;2022-12-11T14:43:07;42.24;39.12;46.67;;
36217;Laerm;22259;48.792;8.964;2022-12-11T14:45:35;48.30;39.46;63.27;;
36217;Laerm;22259;48.792;8.964;2022-12-11T14:48:04;49.32;39.21;67.92;;
36217;Laerm;22259;48.792;8.964;2022-12-11T14:50:39;41.74;39.31;52.69;;
36217;Laerm;22259;48.792;8.964;2022-12-11T14:53:22;41.63;39.12;52.49;;
36217;Laerm;22259;48.792;8.964;2022-12-11T14:55:49;42.75;40.28;50.36;;
36217;Laerm;22259;48.792;8.964;2022-12-11T14:58:21;43.09;40.57;47.32;;
36217;Laerm;22259;48.792;8.964;2022-12-11T15:00:57;43.15;40.89;57.65;;